Home > Products > Valid Products > TAF

000
FTUS41 KCAR 290036 AAD
TAFPQI
TAF AMD
KPQI 290036Z 2901/2924 32010KT P6SM FEW250
     FM290700 VRB03KT P6SM FEW250
     FM291500 26008KT P6SM FEW250
      AMD LTD TO CLD VIS AND WIND=



000
FTUS41 KCAR 290036 AAD
TAFPQI
TAF AMD
KPQI 290036Z 2901/2924 32010KT P6SM FEW250
     FM290700 VRB03KT P6SM FEW250
     FM291500 26008KT P6SM FEW250
      AMD LTD TO CLD VIS AND WIND=



000
FTUS41 KCAR 282359 AAB
TAFHUL
TAF AMD
KHUL 282359Z 2900/2924 34009KT P6SM SCT250
     FM290400 33006KT P6SM SCT250
     FM290800 00000KT P6SM FEW250
     FM291500 27008KT P6SM FEW250=



000
FTUS41 KCAR 282359 AAB
TAFCAR
TAF AMD
KCAR 282359Z 2900/2924 35009KT P6SM FEW250
     FM291300 29006KT P6SM FEW250
     FM291600 24010G17KT P6SM FEW250=



000
FTUS41 KCAR 282359 AAC
TAFBHB
TAF AMD
KBHB 282359Z 2900/2924 35009KT P6SM SCT060
     FM290900 34005KT P6SM SCT250
     FM291500 28006KT P6SM SKC
      AMD LTD TO CLD VIS AND WIND=



000
FTUS41 KCAR 282359 AAB
TAFBGR
TAF AMD
KBGR 282359Z 2900/2924 36007KT P6SM BKN090
     FM290500 VRB03KT P6SM BKN110
     FM291600 27008KT P6SM SKC=



000
FTUS41 KCAR 282359 AAC
TAFPQI
TAF AMD
KPQI 282359Z 2900/2924 35009KT P6SM FEW250
     FM290700 VRB03KT P6SM FEW250
     FM291500 26008KT P6SM FEW250
      AMD LTD TO CLD VIS AND WIND=



000
FTUS41 KCAR 282359 AAC
TAFBHB
TAF AMD
KBHB 282359Z 2900/2924 35009KT P6SM SCT060
     FM290900 34005KT P6SM SCT250
     FM291500 28006KT P6SM SKC
      AMD LTD TO CLD VIS AND WIND=



000
FTUS41 KCAR 282359 AAB
TAFBGR
TAF AMD
KBGR 282359Z 2900/2924 36007KT P6SM BKN090
     FM290500 VRB03KT P6SM BKN110
     FM291600 27008KT P6SM SKC=



000
FTUS41 KCAR 282359 AAB
TAFCAR
TAF AMD
KCAR 282359Z 2900/2924 35009KT P6SM FEW250
     FM291300 29006KT P6SM FEW250
     FM291600 24010G17KT P6SM FEW250=



000
FTUS41 KCAR 282359 AAB
TAFHUL
TAF AMD
KHUL 282359Z 2900/2924 34009KT P6SM SCT250
     FM290400 33006KT P6SM SCT250
     FM290800 00000KT P6SM FEW250
     FM291500 27008KT P6SM FEW250=



000
FTUS41 KCAR 282359 AAC
TAFPQI
TAF AMD
KPQI 282359Z 2900/2924 35009KT P6SM FEW250
     FM290700 VRB03KT P6SM FEW250
     FM291500 26008KT P6SM FEW250
      AMD LTD TO CLD VIS AND WIND=



000
FTUS41 KCAR 282307 AAB
TAFPQI
TAF AMD
KPQI 282307Z 2823/2918 32012KT P6SM FEW250
     FM290400 29006KT P6SM FEW250
     FM291500 26008KT P6SM FEW250
      AMD LTD TO CLD VIS AND WIND=



000
FTUS41 KCAR 282307 AAA
TAFBGR
TAF AMD
KBGR 282307Z 2823/2918 36007KT P6SM BKN090
     FM290500 VRB03KT P6SM BKN110
     FM291600 27008KT P6SM SKC=



000
FTUS41 KCAR 282307 AAB
TAFCAR
TAF AMD
KCAR 282307Z 2823/2918 35012KT P6SM FEW250
     FM290300 31008KT P6SM FEW250
     FM291600 24010G17KT P6SM FEW250=



000
FTUS41 KCAR 282307 AAB
TAFBHB
TAF AMD
KBHB 282307Z 2823/2918 34006KT P6SM SCT060 BKN100
     FM290400 35006KT P6SM BKN060
     FM290900 34005KT P6SM SCT250
      AMD LTD TO CLD VIS AND WIND=



000
FTUS41 KCAR 282307 AAA
TAFHUL
TAF AMD
KHUL 282307Z 2823/2918 34007KT P6SM SCT250
     FM290800 VRB03KT P6SM FEW250
     FM291500 27008KT P6SM FEW250=



000
FTUS41 KCAR 282307 AAB
TAFCAR
TAF AMD
KCAR 282307Z 2823/2918 35012KT P6SM FEW250
     FM290300 31008KT P6SM FEW250
     FM291600 24010G17KT P6SM FEW250=



000
FTUS41 KCAR 282307 AAB
TAFPQI
TAF AMD
KPQI 282307Z 2823/2918 32012KT P6SM FEW250
     FM290400 29006KT P6SM FEW250
     FM291500 26008KT P6SM FEW250
      AMD LTD TO CLD VIS AND WIND=



000
FTUS41 KCAR 282307 AAA
TAFBGR
TAF AMD
KBGR 282307Z 2823/2918 36007KT P6SM BKN090
     FM290500 VRB03KT P6SM BKN110
     FM291600 27008KT P6SM SKC=



000
FTUS41 KCAR 282307 AAB
TAFBHB
TAF AMD
KBHB 282307Z 2823/2918 34006KT P6SM SCT060 BKN100
     FM290400 35006KT P6SM BKN060
     FM290900 34005KT P6SM SCT250
      AMD LTD TO CLD VIS AND WIND=



000
FTUS41 KCAR 282307 AAA
TAFHUL
TAF AMD
KHUL 282307Z 2823/2918 34007KT P6SM SCT250
     FM290800 VRB03KT P6SM FEW250
     FM291500 27008KT P6SM FEW250=



000
FTUS41 KCAR 282231 AAA
TAFBHB
TAF AMD
KBHB 282231Z 2823/2918 36008KT P6SM BKN050 OVC100
     FM290400 34008KT P6SM SCT120 BKN220
     FM291000 VRB03KT P6SM SCT250
     FM291600 28007KT P6SM SKC
      AMD LTD TO CLD VIS AND WIND=



000
FTUS41 KCAR 282230 AAA
TAFPQI
TAF AMD
KPQI 282230Z 2823/2918 32008G15KT P6SM BKN220
     FM290800 30005KT P6SM SCT250
      AMD LTD TO CLD VIS AND WIND=



000
FTUS41 KCAR 281726
TAFHUL
TAF
KHUL 281726Z 2818/2918 36011G18KT P6SM BKN100 OVC180
     FM282300 34009KT P6SM SCT120 BKN220
     FM290800 32006KT P6SM SCT250=



000
FTUS41 KCAR 281726
TAFPQI
TAF
KPQI 281726Z 2818/2918 35008G15KT P6SM BKN220
     FM290800 30005KT P6SM SCT250
      AMD LTD TO CLD VIS AND WIND=



000
FTUS41 KCAR 281726
TAFCAR
TAF
KCAR 281726Z 2818/2918 35008G15KT P6SM BKN220
     FM290800 30005KT P6SM SCT250=



000
FTUS41 KCAR 281726
TAFBGR
TAF
KBGR 281726Z 2818/2918 01010G17KT 6SM -SN OVC040
     FM290000 36009KT P6SM BKN060
     FM290400 34008KT P6SM SCT120 BKN220
     FM291000 VRB03KT P6SM SCT250
     FM291500 28007KT P6SM SKC=



000
FTUS41 KCAR 281726
TAFBHB
TAF
KBHB 281726Z 2818/2918 02012G20KT 6SM -SN OVC035
      TEMPO 2818/2822 3SM -SN OVC025
     FM282300 36010G18KT P6SM BKN050 OVC100
     FM290400 34008KT P6SM SCT120 BKN220
     FM291000 VRB03KT P6SM SCT250
     FM291600 28007KT P6SM SKC
      AMD LTD TO CLD VIS AND WIND=



000
FTUS41 KCAR 281726
TAFPQI
TAF
KPQI 281726Z 2818/2918 35008G15KT P6SM BKN220
     FM290800 30005KT P6SM SCT250
      AMD LTD TO CLD VIS AND WIND=



000
FTUS41 KCAR 281726
TAFBHB
TAF
KBHB 281726Z 2818/2918 02012G20KT 6SM -SN OVC035
      TEMPO 2818/2822 3SM -SN OVC025
     FM282300 36010G18KT P6SM BKN050 OVC100
     FM290400 34008KT P6SM SCT120 BKN220
     FM291000 VRB03KT P6SM SCT250
     FM291600 28007KT P6SM SKC
      AMD LTD TO CLD VIS AND WIND=



000
FTUS41 KCAR 281726
TAFBGR
TAF
KBGR 281726Z 2818/2918 01010G17KT 6SM -SN OVC040
     FM290000 36009KT P6SM BKN060
     FM290400 34008KT P6SM SCT120 BKN220
     FM291000 VRB03KT P6SM SCT250
     FM291500 28007KT P6SM SKC=



000
FTUS41 KCAR 281726
TAFCAR
TAF
KCAR 281726Z 2818/2918 35008G15KT P6SM BKN220
     FM290800 30005KT P6SM SCT250=



000
FTUS41 KCAR 281726
TAFHUL
TAF
KHUL 281726Z 2818/2918 36011G18KT P6SM BKN100 OVC180
     FM282300 34009KT P6SM SCT120 BKN220
     FM290800 32006KT P6SM SCT250=



000
FTUS41 KCAR 281445 AAA
TAFBHB
TAF AMD
KBHB 281445Z 2815/2912 02012G20KT P6SM OVC060
     FM281700 36013G22KT 6SM -SN OVC040
     FM282300 35010G17KT P6SM SCT045 BKN100
     FM290800 33006KT P6SM SCT120
      AMD LTD TO CLD VIS AND WIND=



000
FTUS41 KCAR 281445 AAA
TAFBHB
TAF AMD
KBHB 281445Z 2815/2912 02012G20KT P6SM OVC060
     FM281700 36013G22KT 6SM -SN OVC040
     FM282300 35010G17KT P6SM SCT045 BKN100
     FM290800 33006KT P6SM SCT120
      AMD LTD TO CLD VIS AND WIND=



000
FTUS41 KCAR 281442 AAA
TAFBGR
TAF AMD
KBGR 281442Z 2815/2912 36010G17KT P6SM BKN050
     FM281600 36011G18KT P6SM BKN035
     FM282200 35008KT P6SM BKN040
     FM290500 34005KT P6SM SCT250=



000
FTUS41 KCAR 281442 AAA
TAFBGR
TAF AMD
KBGR 281442Z 2815/2912 36010G17KT P6SM BKN050
     FM281600 36011G18KT P6SM BKN035
     FM282200 35008KT P6SM BKN040
     FM290500 34005KT P6SM SCT250=



000
FTUS41 KCAR 281120
TAFHUL
TAF
KHUL 281120Z 2812/2912 01008KT P6SM SCT250
     FM282100 35010G17KT P6SM SCT050
     FM290000 34010G17KT P6SM SCT250
     FM290900 32006KT P6SM FEW250=



000
FTUS41 KCAR 281120
TAFCAR
TAF
KCAR 281120Z 2812/2912 36006KT P6SM FEW250
     FM291100 30005KT P6SM FEW250=



000
FTUS41 KCAR 281120
TAFPQI
TAF
KPQI 281120Z 2812/2912 01007KT P6SM FEW250
     FM290900 31005KT P6SM FEW250
      AMD LTD TO CLD VIS AND WIND=



000
FTUS41 KCAR 281120
TAFBHB
TAF
KBHB 281120Z 2812/2912 04014G21KT P6SM BKN090
     FM281300 04015G22KT P6SM BKN090
     FM281600 03013G20KT P6SM BKN030
     FM282300 36013G20KT P6SM BKN040
     FM290700 35010G17KT P6SM SCT250
     FM291000 33006KT P6SM SCT250
      AMD LTD TO CLD VIS AND WIND=



000
FTUS41 KCAR 281120
TAFBHB
TAF
KBHB 281120Z 2812/2912 04014G21KT P6SM BKN090
     FM281300 04015G22KT P6SM BKN090
     FM281600 03013G20KT P6SM BKN030
     FM282300 36013G20KT P6SM BKN040
     FM290700 35010G17KT P6SM SCT250
     FM291000 33006KT P6SM SCT250
      AMD LTD TO CLD VIS AND WIND=



000
FTUS41 KCAR 281120
TAFCAR
TAF
KCAR 281120Z 2812/2912 36006KT P6SM FEW250
     FM291100 30005KT P6SM FEW250=



000
FTUS41 KCAR 281120
TAFBGR
TAF
KBGR 281120Z 2812/2912 03010G17KT P6SM BKN050
     FM281600 02011G18KT P6SM BKN035
     FM282000 01008KT P6SM BKN030
     FM282300 01008KT P6SM BKN040
     FM290500 34005KT P6SM SCT250=



000
FTUS41 KCAR 281120
TAFPQI
TAF
KPQI 281120Z 2812/2912 01007KT P6SM FEW250
     FM290900 31005KT P6SM FEW250
      AMD LTD TO CLD VIS AND WIND=



000
FTUS41 KCAR 281120
TAFHUL
TAF
KHUL 281120Z 2812/2912 01008KT P6SM SCT250
     FM282100 35010G17KT P6SM SCT050
     FM290000 34010G17KT P6SM SCT250
     FM290900 32006KT P6SM FEW250=



000
FTUS41 KCAR 281120
TAFBGR
TAF
KBGR 281120Z 2812/2912 03010G17KT P6SM BKN050
     FM281600 02011G18KT P6SM BKN035
     FM282000 01008KT P6SM BKN030
     FM282300 01008KT P6SM BKN040
     FM290500 34005KT P6SM SCT250=



000
FTUS41 KCAR 281015 AAA
TAFBGR
TAF AMD
KBGR 281015Z 2810/2906 01007KT P6SM BKN080
     FM281200 02009KT P6SM BKN030
     FM281600 02011G18KT P6SM OVC020
     FM282200 01008KT P6SM BKN025
     FM282300 01008KT P6SM BKN045=



000
FTUS41 KCAR 281015 AAA
TAFBGR
TAF AMD
KBGR 281015Z 2810/2906 01007KT P6SM BKN080
     FM281200 02009KT P6SM BKN030
     FM281600 02011G18KT P6SM OVC020
     FM282200 01008KT P6SM BKN025
     FM282300 01008KT P6SM BKN045=



000
FTUS41 KCAR 280523
TAFBHB
TAF
KBHB 280523Z 2806/2906 02007KT P6SM BKN120
     FM281100 03011G18KT P6SM OVC030
     FM281400 04014G21KT P6SM OVC025
     FM281700 03013G20KT P6SM OVC020
     FM282300 36013G20KT P6SM BKN030
     FM290000 36013G20KT P6SM BKN040
      AMD LTD TO CLD VIS AND WIND=



000
FTUS41 KCAR 280523
TAFPQI
TAF
KPQI 280523Z 2806/2906 35006KT P6SM FEW250
      AMD LTD TO CLD VIS AND WIND=



000
FTUS41 KCAR 280523
TAFHUL
TAF
KHUL 280523Z 2806/2906 35006KT P6SM SCT250
     FM281500 36010G17KT P6SM BKN060=



000
FTUS41 KCAR 280523
TAFCAR
TAF
KCAR 280523Z 2806/2906 35006KT P6SM FEW250=



000
FTUS41 KCAR 280523
TAFBGR
TAF
KBGR 280523Z 2806/2906 01007KT P6SM BKN080
     FM281000 02009KT P6SM BKN030
     FM281600 02011G18KT P6SM OVC020
     FM282200 01008KT P6SM BKN025
     FM282300 01008KT P6SM BKN045=



000
FTUS41 KCAR 280523
TAFHUL
TAF
KHUL 280523Z 2806/2906 35006KT P6SM SCT250
     FM281500 36010G17KT P6SM BKN060=



000
FTUS41 KCAR 280523
TAFBGR
TAF
KBGR 280523Z 2806/2906 01007KT P6SM BKN080
     FM281000 02009KT P6SM BKN030
     FM281600 02011G18KT P6SM OVC020
     FM282200 01008KT P6SM BKN025
     FM282300 01008KT P6SM BKN045=



000
FTUS41 KCAR 280523
TAFCAR
TAF
KCAR 280523Z 2806/2906 35006KT P6SM FEW250=



000
FTUS41 KCAR 280523
TAFPQI
TAF
KPQI 280523Z 2806/2906 35006KT P6SM FEW250
      AMD LTD TO CLD VIS AND WIND=



000
FTUS41 KCAR 280523
TAFBHB
TAF
KBHB 280523Z 2806/2906 02007KT P6SM BKN120
     FM281100 03011G18KT P6SM OVC030
     FM281400 04014G21KT P6SM OVC025
     FM281700 03013G20KT P6SM OVC020
     FM282300 36013G20KT P6SM BKN030
     FM290000 36013G20KT P6SM BKN040
      AMD LTD TO CLD VIS AND WIND=



000
FTUS41 KCAR 272344
TAFHUL
TAF
KHUL 272344Z 2800/2824 02006KT P6SM SCT025
     FM280700 36006KT P6SM OVC030
     FM281100 35009KT P6SM SCT025 OVC035
     FM281700 36010G20KT P6SM OVC045=



000
FTUS41 KCAR 272344
TAFPQI
TAF
KPQI 272344Z 2800/2824 35008KT P6SM SCT025 BKN250
     FM280500 34005KT P6SM BKN035
     FM281700 35009KT P6SM SCT025 BKN120
      AMD LTD TO CLD VIS AND WIND=



000
FTUS41 KCAR 272344
TAFCAR
TAF
KCAR 272344Z 2800/2824 33008KT P6SM SCT035 BKN250
     FM280300 34006KT P6SM SCT025 BKN035
     FM281600 35010G20KT P6SM BKN070=



000
FTUS41 KCAR 272344
TAFBHB
TAF
KBHB 272344Z 2800/2824 01007KT P6SM BKN250
     FM280200 02010KT 6SM -SN OVC035
     FM281200 02013KT 5SM -SHSN OVC020
     FM281600 03010G20KT 3/4SM -SN SCT007 OVC015
     FM282000 02010G20KT 2SM -SN SCT015 OVC025
      AMD LTD TO CLD VIS AND WIND=



000
FTUS41 KCAR 272344
TAFBGR
TAF
KBGR 272344Z 2800/2824 32010KT P6SM BKN100
     FM280400 02006KT P6SM VCSH OVC025
     FM280600 02007KT P6SM SCT007 OVC020
     FM281000 02010KT 6SM -SHSN OVC007
     FM281400 01010G20KT P6SM SCT007 OVC020=



000
FTUS41 KCAR 271936 AAA
TAFBHB
TAF AMD
KBHB 271936Z 2720/2818 01007KT P6SM BKN035
     FM280800 02010KT P6SM VCSH OVC030
     FM281200 02013KT 5SM -SHSN OVC022
      AMD LTD TO CLD VIS AND WIND=



000
FTUS41 KCAR 271935 AAA
TAFHUL
TAF AMD
KHUL 271935Z 2720/2818 02006KT P6SM BKN035
     FM280600 35005KT P6SM BKN030
     FM281400 35009KT P6SM BKN035=



000
FTUS41 KCAR 271720
TAFBHB
TAF
KBHB 271720Z 2718/2818 36004KT P6SM VCSH OVC022
     FM272200 01008KT P6SM BKN035
     FM280800 02010KT P6SM VCSH OVC030
     FM281200 02013KT 5SM -SHSN OVC022
      AMD LTD TO CLD VIS AND WIND=



000
FTUS41 KCAR 271720
TAFPQI
TAF
KPQI 271720Z 2718/2818 35007KT P6SM BKN028
     FM271900 35008KT P6SM BKN035
     FM280400 34005KT P6SM BKN030
     FM281400 35009KT P6SM BKN035
      AMD LTD TO CLD VIS AND WIND=



000
FTUS41 KCAR 271720
TAFBGR
TAF
KBGR 271720Z 2718/2818 32007KT P6SM BKN040
     FM280800 02006KT P6SM VCSH OVC030
     FM281200 02010KT 6SM -SHSN OVC025=



000
FTUS41 KCAR 271720
TAFCAR
TAF
KCAR 271720Z 2718/2818 33008KT P6SM BKN028
     FM271900 33008KT P6SM BKN035
     FM280300 34006KT P6SM BKN028
     FM281500 35009KT P6SM BKN035=



000
FTUS41 KCAR 271720
TAFHUL
TAF
KHUL 271720Z 2718/2818 36007KT P6SM BKN025
     FM272000 35008KT P6SM BKN035
     FM280600 35005KT P6SM BKN030
     FM281400 35009KT P6SM BKN035=



000
FTUS41 KCAR 271425 AAC
TAFCAR
TAF AMD
KCAR 271425Z 2714/2812 32007KT 3SM -SHSN OVC035
     FM271600 30008KT P6SM BKN040
     FM280300 30008KT P6SM SCT050=



000
FTUS41 KCAR 271425 AAC
TAFCAR
TAF AMD
KCAR 271425Z 2714/2812 32007KT 3SM -SHSN OVC035
     FM271600 30008KT P6SM BKN040
     FM280300 30008KT P6SM SCT050=



000
FTUS41 KCAR 271120
TAFBHB
TAF
KBHB 271120Z 2712/2812 VRB03KT P6SM OVC040
     FM271800 30008KT P6SM BKN050
     FM280300 30008KT P6SM SCT050
      AMD LTD TO CLD VIS AND WIND=



000
FTUS41 KCAR 271120
TAFPQI
TAF
KPQI 271120Z 2712/2812 VRB03KT P6SM OVC070
     FM271800 30008KT P6SM BKN050
     FM280300 30008KT P6SM SCT050
      AMD LTD TO CLD VIS AND WIND=



000
FTUS41 KCAR 271120
TAFBGR
TAF
KBGR 271120Z 2712/2812 00000KT 4SM BR OVC050
     FM271800 30008KT P6SM BKN050
     FM280300 30008KT P6SM SCT050=



000
FTUS41 KCAR 271120
TAFCAR
TAF
KCAR 271120Z 2712/2812 32007KT P6SM OVC060
     FM271800 30008KT P6SM BKN050
     FM280300 30008KT P6SM SCT050=



000
FTUS41 KCAR 271120
TAFHUL
TAF
KHUL 271120Z 2712/2812 VRB03KT 5SM BR OVC070
     FM271500 30008KT P6SM OVC050
     FM271800 30008KT P6SM BKN050
     FM280300 30008KT P6SM SCT050=



000
FTUS41 KCAR 270529
TAFBHB
TAF
KBHB 270529Z 2706/2806 VRB03KT 6SM -RA BR OVC035
     FM270900 35004KT 6SM -SN SCT010 OVC020
     FM271200 35005KT P6SM SCT025 OVC040
      AMD LTD TO CLD VIS AND WIND=



000
FTUS41 KCAR 270529
TAFCAR
TAF
KCAR 270529Z 2706/2806 VRB03KT P6SM OVC050
     FM270900 29004KT P6SM -SHSN OVC025
     FM271500 33008KT P6SM BKN035=



000
FTUS41 KCAR 270529
TAFBGR
TAF
KBGR 270529Z 2706/2806 00000KT 4SM -RA BR OVC015
     FM271000 34006KT P6SM BKN035=



000
FTUS41 KCAR 270529
TAFPQI
TAF
KPQI 270529Z 2706/2806 VRB03KT P6SM OVC080
     FM271200 33008KT P6SM BKN035
      AMD LTD TO CLD VIS AND WIND=



000
FTUS41 KCAR 270529
TAFHUL
TAF
KHUL 270529Z 2706/2806 VRB03KT P6SM OVC050
     FM271100 33007KT P6SM SCT025 BKN035=



000
FTUS41 KCAR 270420 AAC
TAFBHB
TAF AMD
KBHB 270420Z 2704/2724 VRB03KT 5SM -RA BR OVC035
     FM270700 35004KT 6SM -SN SCT010 OVC020
     FM271200 35005KT P6SM SCT025 OVC040
      AMD LTD TO CLD VIS AND WIND=



000
FTUS41 KCAR 270420 AAC
TAFBHB
TAF AMD
KBHB 270420Z 2704/2724 VRB03KT 5SM -RA BR OVC035
     FM270700 35004KT 6SM -SN SCT010 OVC020
     FM271200 35005KT P6SM SCT025 OVC040
      AMD LTD TO CLD VIS AND WIND=



000
FTUS41 KCAR 270419 AAA
TAFBGR
TAF AMD
KBGR 270419Z 2704/2724 00000KT 6SM -RA BR OVC018
     FM270600 31004KT 5SM -SHSN SCT020 OVC040
     FM271000 34006KT P6SM BKN035=



000
FTUS41 KCAR 270419 AAA
TAFBGR
TAF AMD
KBGR 270419Z 2704/2724 00000KT 6SM -RA BR OVC018
     FM270600 31004KT 5SM -SHSN SCT020 OVC040
     FM271000 34006KT P6SM BKN035=



000
FTUS41 KCAR 270418 AAB
TAFHUL
TAF AMD
KHUL 270418Z 2704/2724 VRB03KT 6SM -RA BR OVC028
     FM270600 29004KT 6SM -SN OVC025
     FM271100 33007KT P6SM SCT025 BKN035=



000
FTUS41 KCAR 270418 AAB
TAFHUL
TAF AMD
KHUL 270418Z 2704/2724 VRB03KT 6SM -RA BR OVC028
     FM270600 29004KT 6SM -SN OVC025
     FM271100 33007KT P6SM SCT025 BKN035=



000
FTUS41 KCAR 270417 AAA
TAFPQI
TAF AMD
KPQI 270417Z 2704/2724 VRB03KT P6SM OVC090
     FM270600 29004KT P6SM -SHSN OVC025
     FM271200 33008KT P6SM BKN035
      AMD LTD TO CLD VIS AND WIND=



000
FTUS41 KCAR 270417 AAA
TAFPQI
TAF AMD
KPQI 270417Z 2704/2724 VRB03KT P6SM OVC090
     FM270600 29004KT P6SM -SHSN OVC025
     FM271200 33008KT P6SM BKN035
      AMD LTD TO CLD VIS AND WIND=



000
FTUS41 KCAR 270416 AAC
TAFCAR
TAF AMD
KCAR 270416Z 2704/2724 VRB03KT P6SM OVC110
     FM270700 29004KT P6SM -SHSN OVC025
     FM271500 33008KT P6SM BKN035=



000
FTUS41 KCAR 270416 AAC
TAFCAR
TAF AMD
KCAR 270416Z 2704/2724 VRB03KT P6SM OVC110
     FM270700 29004KT P6SM -SHSN OVC025
     FM271500 33008KT P6SM BKN035=



000
FTUS41 KCAR 270238 AAB
TAFBHB
TAF AMD
KBHB 270238Z 2703/2724 VRB03KT 1 1/2SM -RA BR SCT025 OVC035
     FM270400 36004KT 2SM -RASN BR OVC025
     FM270700 35004KT 6SM -SN SCT010 OVC020
     FM271200 35005KT P6SM SCT025 OVC040
      AMD LTD TO CLD VIS AND WIND=



000
FTUS41 KCAR 270028 AAA
TAFHUL
TAF AMD
KHUL 270028Z 2700/2724 22005KT 1SM -RA SCT007 OVC015
     FM270200 24005KT 3SM -RASN BR SCT010 OVC020
     FM270600 29004KT 6SM -SN OVC025
     FM271100 33007KT P6SM SCT025 BKN035=



000
FTUS41 KCAR 270028 AAA
TAFHUL
TAF AMD
KHUL 270028Z 2700/2724 22005KT 1SM -RA SCT007 OVC015
     FM270200 24005KT 3SM -RASN BR SCT010 OVC020
     FM270600 29004KT 6SM -SN OVC025
     FM271100 33007KT P6SM SCT025 BKN035=



000
FTUS41 KCAR 262343 AAA
TAFBHB
TAF AMD
KBHB 262343Z 2700/2724 VRB03KT 1 1/2SM -RA BR SCT025 OVC035
     FM270200 36004KT 2SM -RASN BR OVC025
     FM270700 35004KT 6SM -SN SCT010 OVC020
     FM271200 35005KT P6SM SCT025 OVC040
      AMD LTD TO CLD VIS AND WIND=



000
FTUS41 KCAR 262343 AAA
TAFBHB
TAF AMD
KBHB 262343Z 2700/2724 VRB03KT 1 1/2SM -RA BR SCT025 OVC035
     FM270200 36004KT 2SM -RASN BR OVC025
     FM270700 35004KT 6SM -SN SCT010 OVC020
     FM271200 35005KT P6SM SCT025 OVC040
      AMD LTD TO CLD VIS AND WIND=



000
FTUS41 KCAR 262331
TAFCAR
TAF
KCAR 262331Z 2700/2724 25007KT P6SM -RA SCT025 OVC040
     FM270200 26004KT 6SM -SN BR SCT008 OVC015
     FM270700 29004KT P6SM -SHSN OVC025
     FM271500 33008KT P6SM BKN035=



000
FTUS41 KCAR 262331
TAFHUL
TAF
KHUL 262331Z 2700/2724 22005KT 6SM -RA SCT025 OVC050
     FM270200 24005KT 3SM -RASN BR SCT010 OVC020
     FM270600 29004KT 6SM -SN OVC025
     FM271100 33007KT P6SM SCT025 BKN035=



000
FTUS41 KCAR 262331
TAFBHB
TAF
KBHB 262331Z 2700/2724 VRB03KT 1/2SM RA FG BKN025
     FM270200 36004KT 2SM -RASN BR OVC007
     FM270700 35004KT 6SM -SN SCT010 OVC020
     FM271200 35005KT P6SM SCT025 OVC040
      AMD LTD TO CLD VIS AND WIND=



000
FTUS41 KCAR 262331
TAFPQI
TAF
KPQI 262331Z 2700/2724 25009G16KT 6SM -RA BKN025 OVC050
     FM270200 24005KT 6SM -RASN BR OVC015
     FM270600 29004KT P6SM -SHSN OVC025
     FM271200 33008KT P6SM BKN035
      AMD LTD TO CLD VIS AND WIND=



000
FTUS41 KCAR 262331
TAFBGR
TAF
KBGR 262331Z 2700/2724 13004KT 3SM -RA BR SCT025 OVC040
     FM270100 VRB03KT 2SM -RASN BR SCT007 OVC020
     FM270300 29004KT 2SM -SN BR OVC007
     FM270600 31004KT 5SM -SHSN SCT020 OVC040
     FM271000 34006KT P6SM BKN035=



000
FTUS41 KCAR 262245 AAC
TAFBHB
TAF AMD
KBHB 262245Z 2623/2718 22006KT 1/2SM RA FG OVC003
     FM270000 VRB03KT 2SM -RA BR BKN005
     FM270600 VRB03KT 2SM -RASN BR OVC008
     FM271000 35004KT 4SM -SHSN OVC015
     FM271200 29004KT 6SM -SHSN OVC025
     FM271400 34006KT P6SM BKN035
      AMD LTD TO CLD VIS AND WIND=



000
FTUS41 KCAR 262201 AAB
TAFCAR
TAF AMD
KCAR 262201Z 2622/2718 24015G25KT P6SM SCT025 OVC070
     FM262300 25009G16KT 6SM -RA OVC025
     FM270100 24005KT 3SM -RASN BR OVC015
     FM270230 25004KT 2SM -SN BR SCT008 OVC015
     FM270600 29004KT 6SM -SHSN OVC025
     FM271200 33008KT P6SM BKN035=



000
FTUS41 KCAR 262200 AAA
TAFBGR
TAF AMD
KBGR 262200Z 2622/2718 19006KT 4SM -RA SCT025 OVC070
     FM262300 13004KT 2SM -RA BR SCT007 OVC015
     FM270200 VRB03KT 2SM -RASN BR OVC008
     FM270700 35004KT 2SM -SN BR OVC015
     FM270900 29004KT 5SM -SHSN OVC025
     FM271200 34006KT P6SM BKN035=



000
FTUS41 KCAR 262158 AAB
TAFBHB
TAF AMD
KBHB 262158Z 2622/2718 22006KT 3SM -RA BR SCT010 OVC040
     FM262300 VRB03KT 2SM -RA BR BKN005
     FM270600 VRB03KT 2SM -RASN BR OVC008
     FM271000 35004KT 4SM -SHSN OVC015
     FM271200 29004KT 6SM -SHSN OVC025
     FM271400 34006KT P6SM BKN035
      AMD LTD TO CLD VIS AND WIND=



000
FTUS41 KCAR 261803 AAA
TAFHUL
TAF AMD
KHUL 261803Z 2618/2718 24009G15KT P6SM BKN035 OVC070
     FM262200 25008KT 6SM -RA BKN025 OVC050
     FM270200 24005KT 3SM -RASN BR OVC015
     FM270400 25004KT 1 1/2SM -SN BR BKN008 OVC015
     FM270600 29004KT 4SM -SHSN OVC015
     FM270900 31006KT P6SM OVC025
     FM271200 33008KT P6SM BKN035=



000
FTUS41 KCAR 261803 AAA
TAFBHB
TAF AMD
KBHB 261803Z 2618/2718 19009G16KT 6SM -RA BR SCT008 OVC020
     FM262100 VRB03KT 2SM -RA BR BKN005 OVC010
     FM270600 VRB03KT 2SM -RASN BR OVC008
     FM271000 35004KT 4SM -SHSN OVC015
     FM271200 29004KT 6SM -SHSN OVC025
     FM271400 34006KT P6SM BKN035
      AMD LTD TO CLD VIS AND WIND=



000
FTUS41 KCAR 261803 AAA
TAFHUL
TAF AMD
KHUL 261803Z 2618/2718 24009G15KT P6SM BKN035 OVC070
     FM262200 25008KT 6SM -RA BKN025 OVC050
     FM270200 24005KT 3SM -RASN BR OVC015
     FM270400 25004KT 1 1/2SM -SN BR BKN008 OVC015
     FM270600 29004KT 4SM -SHSN OVC015
     FM270900 31006KT P6SM OVC025
     FM271200 33008KT P6SM BKN035=



000
FTUS41 KCAR 261803 AAA
TAFBHB
TAF AMD
KBHB 261803Z 2618/2718 19009G16KT 6SM -RA BR SCT008 OVC020
     FM262100 VRB03KT 2SM -RA BR BKN005 OVC010
     FM270600 VRB03KT 2SM -RASN BR OVC008
     FM271000 35004KT 4SM -SHSN OVC015
     FM271200 29004KT 6SM -SHSN OVC025
     FM271400 34006KT P6SM BKN035
      AMD LTD TO CLD VIS AND WIND=



000
FTUS41 KCAR 261725
TAFHUL
TAF
KHUL 261725Z 2618/2718 23013G22KT P6SM BKN035 OVC070
     FM262200 25009G16KT 6SM -RA BKN025 OVC050
     FM270200 24005KT 3SM -RASN BR OVC015
     FM270400 25004KT 1 1/2SM -SN BR BKN008 OVC015
     FM270600 29004KT 4SM -SHSN OVC015
     FM270900 31006KT P6SM OVC025
     FM271200 33008KT P6SM BKN035=



000
FTUS41 KCAR 261725
TAFBHB
TAF
KBHB 261725Z 2618/2718 19009G16KT 6SM -RA BR OVC008
     FM262100 VRB03KT 2SM -RA BR OVC005
     FM270600 VRB03KT 2SM -RASN BR OVC008
     FM271000 35004KT 4SM -SHSN OVC015
     FM271200 29004KT 6SM -SHSN OVC025
     FM271400 34006KT P6SM BKN035
      AMD LTD TO CLD VIS AND WIND=



000
FTUS41 KCAR 261725
TAFPQI
TAF
KPQI 261725Z 2618/2718 24015G25KT P6SM BKN035 OVC070
     FM262200 25009G16KT 6SM -RA BKN025 OVC050
     FM270100 24005KT 3SM -RASN BR OVC015
     FM270300 25004KT 2SM -SN BR SCT008 OVC015
     FM270600 29004KT 6SM -SHSN OVC025
     FM271200 33008KT P6SM BKN035
      AMD LTD TO CLD VIS AND WIND=



000
FTUS41 KCAR 261725
TAFCAR
TAF
KCAR 261725Z 2618/2718 24015G25KT P6SM BKN035 OVC070
     FM262200 25009G16KT 6SM -RA BKN025 OVC050
     FM270030 24005KT 3SM -RASN BR OVC015
     FM270230 25004KT 2SM -SN BR SCT008 OVC015
     FM270600 29004KT 6SM -SHSN OVC025
     FM271200 33008KT P6SM BKN035=



000
FTUS41 KCAR 261725
TAFBGR
TAF
KBGR 261725Z 2618/2718 19008KT P6SM BKN035 OVC070
     FM262000 17006KT 5SM -RA BR OVC025
     FM262200 13004KT 2SM -RA BR BKN008 OVC015
     FM262300 VRB03KT 2SM -RA BR OVC005
     FM270400 VRB03KT 2SM -RASN BR OVC008
     FM270700 35004KT 2SM -SN BR OVC015
     FM270900 29004KT 5SM -SHSN OVC025
     FM271200 34006KT P6SM BKN035=



000
FTUS41 KCAR 261540 AAA
TAFBGR
TAF AMD
KBGR 261540Z 2616/2712 20008KT P6SM SCT008 OVC025
     FM262100 20005KT 3SM -RA BKN008 BKN015
     FM270200 VRB04KT 2SM -RASN BKN003
     FM270700 35005KT 2SM -SN OVC008
     FM270900 34005KT P6SM OVC015=



000
FTUS41 KCAR 261434 AAA
TAFBHB
TAF AMD
KBHB 261434Z 2615/2712 22008KT 3SM BR OVC003
     FM262100 VRB04KT 3SM -RA OVC003
     FM270300 03006KT 2SM -RA BKN003
     FM270800 36009KT 3SM -RA OVC008
      TEMPO 2709/2712 2SM -RASN
      AMD LTD TO CLD VIS AND WIND=



000
FTUS41 KCAR 261123 CCA
TAFBHB
TAF COR
KBHB 261123Z 2612/2712 22008KT 1SM BR OVC003
     FM262100 VRB04KT 3SM -RA OVC003
     FM270300 03006KT 2SM -RA BKN003
     FM270800 36009KT 3SM -RA OVC008
      TEMPO 2709/2712 2SM -RASN
      AMD LTD TO CLD VIS AND WIND=



000
FTUS41 KCAR 261122
TAFPQI
TAF
KPQI 261122Z 2612/2712 20012KT P6SM OVC025
     FM262000 23007KT P6SM BKN025
     FM262300 21004KT 2SM -RASN BKN015
     FM270200 VRB03KT 2SM -SN OVC010
     FM270500 VRB03KT P6SM BKN008
     FM270800 32006KT P6SM SCT008 BKN025
      AMD LTD TO CLD VIS AND WIND=



000
FTUS41 KCAR 261122
TAFBHB
TAF
KBHB 261122Z 2612/2712 22008KT P6SM OVC003
     FM262100 VRB04KT 3SM -RA OVC003
     FM270300 03006KT 2SM -RA BKN003
     FM270800 36009KT 3SM -RA OVC008
      TEMPO 2709/2712 2SM -RASN
      AMD LTD TO CLD VIS AND WIND=



000
FTUS41 KCAR 261122
TAFCAR
TAF
KCAR 261122Z 2612/2712 20013G18KT P6SM BKN020 OVC035
     FM262100 23008KT P6SM BKN025
      TEMPO 2623/2702 2SM -SN BKN015
     FM270200 24004KT P6SM SCT008 OVC010
     FM270600 VRB03KT P6SM OVC015
     FM271000 32006KT P6SM BKN025
      AMD LTD TO CLD WIND AND WX=



000
FTUS41 KCAR 261122
TAFBGR
TAF
KBGR 261122Z 2612/2712 20008KT P6SM BKN008 OVC025
     FM262100 20005KT 3SM -RA BKN003 BKN015
     FM270200 VRB04KT 2SM -RASN BKN003
     FM270700 35005KT 2SM -SN OVC008
     FM270900 34005KT P6SM OVC015=



000
FTUS41 KCAR 261122
TAFHUL
TAF
KHUL 261122Z 2612/2712 21010G20KT P6SM OVC015
     FM261800 23010KT P6SM BKN025
     FM262200 23005KT 3SM -RA SCT008 OVC015
     FM270100 24004KT 2SM -RASN SCT003 OVC008
     FM270500 VRB03KT 2SM -SN OVC008
     FM270800 32004KT P6SM SCT008 OVC015=



000
FTUS41 KCAR 260816 AAA
TAFBGR
TAF AMD
KBGR 260816Z 2608/2706 20011KT P6SM OVC010
     FM261700 22007KT 4SM BR OVC015
     FM262000 22005KT 3SM -RA BKN008 OVC015
     FM262200 VRB03KT 2SM -RA OVC008
     FM270100 36004KT 2SM -RASN OVC004=



000
FTUS41 KCAR 260816 AAA
TAFBGR
TAF AMD
KBGR 260816Z 2608/2706 20011KT P6SM OVC010
     FM261700 22007KT 4SM BR OVC015
     FM262000 22005KT 3SM -RA BKN008 OVC015
     FM262200 VRB03KT 2SM -RA OVC008
     FM270100 36004KT 2SM -RASN OVC004=



000
FTUS41 KCAR 260704 AAA
TAFBHB
TAF AMD
KBHB 260704Z 2607/2706 20012G20KT 4SM BR OVC006
     FM261800 23008KT P6SM BKN015 OVC040
     FM262000 28007KT 3SM -RA OVC008
     FM262300 VRB05KT 2SM -RA OVC007
     FM270100 04004KT 2SM -RA OVC007
      AMD LTD TO CLD VIS AND WIND=



000
FTUS41 KCAR 260704 AAA
TAFBHB
TAF AMD
KBHB 260704Z 2607/2706 20012G20KT 4SM BR OVC006
     FM261800 23008KT P6SM BKN015 OVC040
     FM262000 28007KT 3SM -RA OVC008
     FM262300 VRB05KT 2SM -RA OVC007
     FM270100 04004KT 2SM -RA OVC007
      AMD LTD TO CLD VIS AND WIND=



000
FTUS41 KCAR 260530
TAFHUL
TAF
KHUL 260530Z 2606/2706 19010G16KT P6SM -SN OVC040
     FM260700 19010G16KT P6SM OVC025
     FM261800 23010G15KT P6SM OVC025
     FM262200 23006KT 3SM -RA SCT008 OVC015
     FM270000 26004KT 2SM -SN OVC008=



000
FTUS41 KCAR 260530
TAFHUL
TAF
KHUL 260530Z 2606/2706 19010G16KT P6SM -SN OVC040
     FM260700 19010G16KT P6SM OVC025
     FM261800 23010G15KT P6SM OVC025
     FM262200 23006KT 3SM -RA SCT008 OVC015
     FM270000 26004KT 2SM -SN OVC008=



000
FTUS41 KCAR 260530
TAFCAR
TAF
KCAR 260530Z 2606/2706 18011KT P6SM OVC040
      TEMPO 2606/2608 2SM -SN OVC025
     FM260800 19011KT P6SM OVC025
     FM261800 24011G22KT P6SM SCT025 OVC040
     FM262100 24008KT P6SM OVC025
     FM262300 25004KT 3SM -SN OVC008
      AMD LTD TO CLD WIND AND WX=



000
FTUS41 KCAR 260530
TAFBGR
TAF
KBGR 260530Z 2606/2706 20011KT P6SM OVC020
     FM261700 22007KT 4SM BR OVC015
     FM262000 22005KT 3SM -RA BKN008 OVC015
     FM262200 VRB03KT 2SM -RA OVC008
     FM270100 36004KT 2SM -RASN OVC004=



000
FTUS41 KCAR 260530
TAFCAR
TAF
KCAR 260530Z 2606/2706 18011KT P6SM OVC040
      TEMPO 2606/2608 2SM -SN OVC025
     FM260800 19011KT P6SM OVC025
     FM261800 24011G22KT P6SM SCT025 OVC040
     FM262100 24008KT P6SM OVC025
     FM262300 25004KT 3SM -SN OVC008
      AMD LTD TO CLD WIND AND WX=



000
FTUS41 KCAR 260530
TAFBGR
TAF
KBGR 260530Z 2606/2706 20011KT P6SM OVC020
     FM261700 22007KT 4SM BR OVC015
     FM262000 22005KT 3SM -RA BKN008 OVC015
     FM262200 VRB03KT 2SM -RA OVC008
     FM270100 36004KT 2SM -RASN OVC004=



000
FTUS41 KCAR 260530
TAFPQI
TAF
KPQI 260530Z 2606/2706 19012G20KT P6SM OVC040
      TEMPO 2606/2608 2SM -SN OVC025
     FM260800 19010G20KT P6SM OVC025
     FM261800 24010G22KT P6SM SCT025 OVC040
     FM262100 23007KT P6SM OVC020
     FM262300 25004KT 2SM -SN OVC008
      AMD LTD TO CLD VIS AND WIND=



000
FTUS41 KCAR 260530
TAFPQI
TAF
KPQI 260530Z 2606/2706 19012G20KT P6SM OVC040
      TEMPO 2606/2608 2SM -SN OVC025
     FM260800 19010G20KT P6SM OVC025
     FM261800 24010G22KT P6SM SCT025 OVC040
     FM262100 23007KT P6SM OVC020
     FM262300 25004KT 2SM -SN OVC008
      AMD LTD TO CLD VIS AND WIND=



000
FTUS41 KCAR 260530
TAFBHB
TAF
KBHB 260530Z 2606/2706 20012G20KT P6SM OVC010
     FM261800 23008KT P6SM BKN015 OVC040
     FM262000 28007KT 3SM -RA OVC008
     FM262300 VRB05KT 2SM -RA OVC007
     FM270100 04004KT 2SM -RA OVC007
      AMD LTD TO CLD VIS AND WIND=



000
FTUS41 KCAR 260530
TAFBHB
TAF
KBHB 260530Z 2606/2706 20012G20KT P6SM OVC010
     FM261800 23008KT P6SM BKN015 OVC040
     FM262000 28007KT 3SM -RA OVC008
     FM262300 VRB05KT 2SM -RA OVC007
     FM270100 04004KT 2SM -RA OVC007
      AMD LTD TO CLD VIS AND WIND=



    US Dept of Commerce
    National Oceanic and Atmospheric Administration
    National Weather Service
    1325 East West Highway
    Silver Spring, MD 20910
    Page Author: NWS Internet Services Team
Disclaimer
Information Quality
Credits
Glossary
Privacy Policy
Freedom of Information Act (FOIA)
About Us
Career Opportunities